createdAt,value
2017-11-23T00:00:29.738Z,6.90
2017-11-23T00:02:56.047Z,6.90
2017-11-23T00:05:23.098Z,6.90
2017-11-23T00:07:50.132Z,7.00
2017-11-23T00:10:17.177Z,6.90
2017-11-23T00:12:43.476Z,6.90
2017-11-23T00:15:09.828Z,7.00
2017-11-23T00:17:36.132Z,6.90
2017-11-23T00:20:02.471Z,6.90
2017-11-23T00:22:28.747Z,6.90
2017-11-23T00:24:55.056Z,6.90
2017-11-23T00:27:21.372Z,6.90
2017-11-23T00:29:47.716Z,6.80
2017-11-23T00:32:15.482Z,6.70
2017-11-23T00:34:41.816Z,6.70
2017-11-23T00:37:08.128Z,6.80
2017-11-23T00:39:34.460Z,6.70
2017-11-23T00:42:00.757Z,6.70
2017-11-23T00:44:27.051Z,6.60
2017-11-23T00:46:54.079Z,6.70
2017-11-23T00:49:21.148Z,6.60
2017-11-23T00:51:47.441Z,6.60
2017-11-23T00:54:13.740Z,6.70
2017-11-23T00:56:40.046Z,6.70
2017-11-23T00:59:06.386Z,6.70
2017-11-23T01:01:32.671Z,6.70
2017-11-23T01:03:59.727Z,6.70
2017-11-23T01:06:26.030Z,6.70
2017-11-23T01:08:52.352Z,6.70
2017-11-23T01:11:18.653Z,6.80
2017-11-23T01:13:44.973Z,6.80
2017-11-23T01:16:11.269Z,6.80
2017-11-23T01:18:37.562Z,6.70
2017-11-23T01:21:03.876Z,6.70
2017-11-23T01:23:30.181Z,6.70
2017-11-23T01:25:57.213Z,6.80
2017-11-23T01:28:23.500Z,6.70
2017-11-23T01:30:49.794Z,6.70
2017-11-23T01:33:16.090Z,6.80
2017-11-23T01:35:42.402Z,6.80
2017-11-23T01:38:09.469Z,6.80
2017-11-23T01:40:35.782Z,6.70
2017-11-23T01:43:02.115Z,6.80
2017-11-23T01:45:28.454Z,6.80
2017-11-23T01:47:54.762Z,6.80
2017-11-23T01:50:21.071Z,6.70
2017-11-23T01:52:47.356Z,6.70
2017-11-23T01:55:14.444Z,6.80
2017-11-23T01:57:40.761Z,6.70
2017-11-23T02:00:07.117Z,6.70
2017-11-23T02:02:33.450Z,6.70
2017-11-23T02:04:59.748Z,6.60
2017-11-23T02:07:26.070Z,6.60
2017-11-23T02:09:53.136Z,6.60
2017-11-23T02:12:19.484Z,6.60
2017-11-23T02:14:45.785Z,6.60
2017-11-23T02:17:12.161Z,6.60
2017-11-23T02:19:38.493Z,6.50
2017-11-23T02:22:04.869Z,6.60
2017-11-23T02:24:31.198Z,6.60
2017-11-23T02:26:57.598Z,6.60
2017-11-23T02:29:24.688Z,6.50
2017-11-23T02:31:51.051Z,6.40
2017-11-23T02:34:17.374Z,6.50
2017-11-23T02:36:43.784Z,6.50
2017-11-23T02:39:10.120Z,6.50
2017-11-23T02:41:36.459Z,6.50
2017-11-23T02:44:02.780Z,6.50
2017-11-23T02:46:29.128Z,6.60
2017-11-23T02:48:55.462Z,6.60
2017-11-23T02:51:21.800Z,6.60
2017-11-23T02:53:48.139Z,6.50
2017-11-23T02:56:14.494Z,6.50
2017-11-23T02:58:41.566Z,6.60
2017-11-23T03:01:07.883Z,6.50
2017-11-23T03:03:34.953Z,6.50
2017-11-23T03:06:01.266Z,6.50
2017-11-23T03:08:28.324Z,6.70
2017-11-23T03:10:54.660Z,6.60
2017-11-23T03:13:20.993Z,6.70
2017-11-23T03:15:47.282Z,6.70
2017-11-23T03:18:14.364Z,6.60
2017-11-23T03:20:40.670Z,6.60
2017-11-23T03:23:07.745Z,6.70
2017-11-23T03:25:34.055Z,6.60
2017-11-23T03:28:01.123Z,6.60
2017-11-23T03:30:27.440Z,6.60
2017-11-23T03:32:53.771Z,6.60
2017-11-23T03:35:20.834Z,6.60
2017-11-23T03:37:47.130Z,6.50
2017-11-23T03:40:14.194Z,6.60
2017-11-23T03:42:41.265Z,6.60
2017-11-23T03:45:07.591Z,6.50
2017-11-23T03:47:33.936Z,6.60
2017-11-23T03:50:00.280Z,6.60
2017-11-23T03:52:26.590Z,6.60
2017-11-23T03:54:52.940Z,6.60
2017-11-23T03:57:19.288Z,6.70
2017-11-23T03:59:45.603Z,6.60
2017-11-23T04:02:11.911Z,6.70
2017-11-23T04:04:38.213Z,6.60
2017-11-23T04:07:05.270Z,6.70
2017-11-23T04:09:31.612Z,6.60
2017-11-23T04:11:57.923Z,6.60
2017-11-23T04:14:24.973Z,6.60
2017-11-23T04:16:52.019Z,6.60
2017-11-23T04:19:19.142Z,6.60
2017-11-23T04:21:46.204Z,6.60
2017-11-23T04:24:13.305Z,6.60
2017-11-23T04:26:39.602Z,6.50
2017-11-23T04:29:05.923Z,6.60
2017-11-23T04:31:32.959Z,6.50
2017-11-23T04:34:00.030Z,6.50
2017-11-23T04:36:26.346Z,6.50
2017-11-23T04:38:52.666Z,6.50
2017-11-23T04:41:19.718Z,6.60
2017-11-23T04:43:46.056Z,6.50
2017-11-23T04:46:12.353Z,6.60
2017-11-23T04:48:39.452Z,6.60
2017-11-23T04:51:05.746Z,6.60
2017-11-23T04:53:32.853Z,6.60
2017-11-23T04:55:59.155Z,6.50
2017-11-23T04:58:25.477Z,6.60
2017-11-23T05:00:52.511Z,6.40
2017-11-23T05:03:19.566Z,6.50
2017-11-23T05:05:46.608Z,6.50
2017-11-23T05:08:13.641Z,6.50
2017-11-23T05:10:39.959Z,6.50
2017-11-23T05:13:06.264Z,6.50
2017-11-23T05:15:32.590Z,6.50
2017-11-23T05:17:58.962Z,6.50
2017-11-23T05:20:25.282Z,6.50
2017-11-23T05:22:51.591Z,6.40
2017-11-23T05:25:17.877Z,6.40
2017-11-23T05:27:44.893Z,6.60
2017-11-23T05:30:11.841Z,6.60
2017-11-23T05:32:40.631Z,6.60
2017-11-23T05:35:07.326Z,6.60
2017-11-23T05:37:33.620Z,6.60
2017-11-23T05:40:00.660Z,6.60
2017-11-23T05:42:27.685Z,6.60
2017-11-23T05:44:53.967Z,6.60
2017-11-23T05:47:21.804Z,6.40
2017-11-23T05:49:48.840Z,6.40
2017-11-23T05:52:15.871Z,6.50
2017-11-23T05:54:42.185Z,6.50
2017-11-23T05:57:08.477Z,6.60
2017-11-23T05:59:34.808Z,6.60
2017-11-23T06:02:01.107Z,6.60
2017-11-23T06:04:28.153Z,6.70
2017-11-23T06:06:55.212Z,6.70
2017-11-23T06:09:22.249Z,6.70
2017-11-23T06:11:49.308Z,6.60
2017-11-23T06:14:16.334Z,6.60
2017-11-23T06:16:44.120Z,6.50
2017-11-23T06:19:10.421Z,6.50
2017-11-23T06:21:36.714Z,6.60
2017-11-23T06:24:03.020Z,6.60
2017-11-23T06:26:29.310Z,6.70
2017-11-23T06:28:55.597Z,6.60
2017-11-23T06:31:21.896Z,6.70
2017-11-23T06:33:48.189Z,6.70
2017-11-23T06:36:14.531Z,6.70
2017-11-23T06:38:42.297Z,6.70
2017-11-23T06:41:09.379Z,6.70
2017-11-23T06:43:35.680Z,6.70
2017-11-23T06:46:02.743Z,6.80
2017-11-23T06:48:29.797Z,6.80
2017-11-23T06:50:56.108Z,6.80
2017-11-23T06:53:22.391Z,6.90
2017-11-23T06:55:48.700Z,6.80
2017-11-23T06:58:14.995Z,6.90
2017-11-23T07:00:42.106Z,7.00
2017-11-23T07:03:08.427Z,6.90
2017-11-23T07:05:34.716Z,6.90
2017-11-23T07:08:01.084Z,6.90
2017-11-23T07:10:27.419Z,7.00
2017-11-23T07:12:53.733Z,7.00
2017-11-23T07:15:20.047Z,7.10
2017-11-23T07:17:53.200Z,7.00
2017-11-23T07:20:19.532Z,7.00
2017-11-23T07:22:47.339Z,7.00
2017-11-23T07:25:13.656Z,7.00
2017-11-23T07:27:40.714Z,7.10
2017-11-23T07:30:07.024Z,7.10
2017-11-23T07:32:34.092Z,7.10
2017-11-23T07:35:00.400Z,7.10
2017-11-23T07:37:27.467Z,7.20
2017-11-23T07:39:53.793Z,7.10
2017-11-23T07:42:20.105Z,7.30
2017-11-23T07:44:47.144Z,7.20
2017-11-23T07:47:14.207Z,7.20
2017-11-23T07:49:41.260Z,7.30
2017-11-23T07:52:07.577Z,7.20
2017-11-23T07:54:34.632Z,7.30
2017-11-23T07:57:01.689Z,7.30
2017-11-23T07:59:28.006Z,7.30
2017-11-23T08:01:54.349Z,7.40
2017-11-23T08:04:20.673Z,7.40
2017-11-23T08:06:46.998Z,7.40
2017-11-23T08:09:14.043Z,7.50
2017-11-23T08:11:41.075Z,7.50
2017-11-23T08:14:07.420Z,7.40
2017-11-23T08:16:34.498Z,7.60
2017-11-23T08:19:00.839Z,7.50
2017-11-23T08:21:27.170Z,7.60
2017-11-23T08:23:53.519Z,7.70
2017-11-23T08:26:19.867Z,7.70
2017-11-23T08:28:46.209Z,7.80
2017-11-23T08:31:13.286Z,7.80
2017-11-23T08:33:39.618Z,7.70
2017-11-23T08:36:05.944Z,7.90
2017-11-23T08:38:32.281Z,7.90
2017-11-23T08:40:58.582Z,8.00
2017-11-23T08:43:24.912Z,8.00
2017-11-23T08:45:51.213Z,8.00
2017-11-23T08:48:17.533Z,8.10
2017-11-23T08:50:43.863Z,8.10
2017-11-23T08:53:10.194Z,8.20
2017-11-23T08:55:36.490Z,8.00
2017-11-23T08:58:02.833Z,8.20
2017-11-23T09:00:29.142Z,8.10
2017-11-23T09:02:55.496Z,8.10
2017-11-23T09:05:21.812Z,8.20
2017-11-23T09:07:48.132Z,8.20
2017-11-23T09:10:15.205Z,8.40
2017-11-23T09:12:43.426Z,8.40
2017-11-23T09:15:10.527Z,8.50
2017-11-23T09:17:36.847Z,8.40
2017-11-23T09:20:03.181Z,8.50
2017-11-23T09:22:29.503Z,8.60
2017-11-23T09:24:55.838Z,8.70
2017-11-23T09:27:22.187Z,8.60
2017-11-23T09:29:48.550Z,8.60
2017-11-23T09:32:14.864Z,8.70
2017-11-23T09:34:41.240Z,8.80
2017-11-23T09:37:07.609Z,8.90
2017-11-23T09:39:33.949Z,8.80
2017-11-23T09:42:00.301Z,8.90
2017-11-23T09:44:27.400Z,9.00
2017-11-23T09:46:53.742Z,8.90
2017-11-23T09:49:20.089Z,9.10
2017-11-23T09:51:46.445Z,9.10
2017-11-23T09:54:13.569Z,9.20
2017-11-23T09:56:39.947Z,9.20
2017-11-23T09:59:07.003Z,9.40
2017-11-23T10:01:34.081Z,9.40
2017-11-23T10:04:00.409Z,9.40
2017-11-23T10:06:26.717Z,9.50
2017-11-23T10:08:53.067Z,9.60
2017-11-23T10:11:19.393Z,9.60
2017-11-23T10:13:45.703Z,9.80
2017-11-23T10:16:12.010Z,9.90
2017-11-23T10:18:38.319Z,9.90
2017-11-23T10:21:04.658Z,9.80
2017-11-23T10:23:30.981Z,9.90
2017-11-23T10:25:57.301Z,9.90
2017-11-23T10:28:23.606Z,9.90
2017-11-23T10:30:49.931Z,10.00
2017-11-23T10:33:16.237Z,10.00
2017-11-23T10:35:43.310Z,10.00
2017-11-23T10:38:09.674Z,10.00
2017-11-23T10:40:36.017Z,10.00
2017-11-23T10:43:02.393Z,10.00
2017-11-23T10:45:28.696Z,10.00
2017-11-23T10:47:55.068Z,10.10
2017-11-23T10:50:21.431Z,10.10
2017-11-23T10:52:47.764Z,10.10
2017-11-23T10:55:14.096Z,10.20
2017-11-23T10:57:40.460Z,10.30
2017-11-23T11:00:07.528Z,10.30
2017-11-23T11:02:33.890Z,10.20
2017-11-23T11:05:00.236Z,10.20
2017-11-23T11:07:26.549Z,10.20
2017-11-23T11:09:52.879Z,10.30
2017-11-23T11:12:19.199Z,10.20
2017-11-23T11:14:45.541Z,10.10
2017-11-23T11:17:11.846Z,10.20
2017-11-23T11:19:38.214Z,10.20
2017-11-23T11:22:04.555Z,10.20
2017-11-23T11:24:30.889Z,10.20
2017-11-23T11:26:57.209Z,10.20
2017-11-23T11:29:23.543Z,10.10
2017-11-23T11:31:49.846Z,10.20
2017-11-23T11:34:16.173Z,10.30
2017-11-23T11:36:42.502Z,10.40
2017-11-23T11:39:08.822Z,10.40
2017-11-23T11:41:35.118Z,10.60
2017-11-23T11:44:02.169Z,10.70
2017-11-23T11:46:29.206Z,10.70
2017-11-23T11:48:56.307Z,10.70
2017-11-23T11:51:22.618Z,10.70
2017-11-23T11:53:48.964Z,10.70
2017-11-23T11:56:15.340Z,10.90
2017-11-23T11:58:41.685Z,11.00
2017-11-23T12:01:08.755Z,11.00
2017-11-23T12:03:35.090Z,10.90
2017-11-23T12:06:01.420Z,11.10
2017-11-23T12:08:27.713Z,11.10
2017-11-23T12:10:54.791Z,11.30
2017-11-23T12:13:21.114Z,11.20
2017-11-23T12:15:59.894Z,11.40
2017-11-23T12:21:39.204Z,11.60
2017-11-23T12:24:10.471Z,11.60
2017-11-23T12:26:36.847Z,11.60
2017-11-23T12:29:16.359Z,11.60
2017-11-23T12:31:42.685Z,11.50
2017-11-23T12:34:08.998Z,11.70
2017-11-23T12:36:35.358Z,11.70
2017-11-23T12:39:02.462Z,11.80
2017-11-23T12:41:28.794Z,11.80
2017-11-23T12:43:55.109Z,11.80
2017-11-23T12:46:21.472Z,11.80
2017-11-23T12:48:47.803Z,11.90
2017-11-23T12:51:14.131Z,11.90
2017-11-23T12:53:40.478Z,11.90
2017-11-23T12:56:06.827Z,11.90
2017-11-23T12:58:33.177Z,12.00
2017-11-23T13:00:59.503Z,12.10
2017-11-23T13:03:26.597Z,12.30
2017-11-23T13:05:52.920Z,12.20
2017-11-23T13:08:19.263Z,12.30
2017-11-23T13:10:45.570Z,12.40
2017-11-23T13:13:11.891Z,12.60
2017-11-23T13:15:38.225Z,12.60
2017-11-23T13:18:04.575Z,12.50
2017-11-23T13:20:30.937Z,12.40
2017-11-23T13:22:57.274Z,12.40
2017-11-23T13:25:24.393Z,12.50
2017-11-23T13:27:50.722Z,12.50
2017-11-23T13:30:17.087Z,12.60
2017-11-23T13:32:44.212Z,12.60
2017-11-23T13:35:10.510Z,12.60
2017-11-23T13:37:37.596Z,12.60
2017-11-23T13:40:03.909Z,12.60
2017-11-23T13:42:30.277Z,12.70
2017-11-23T13:44:56.597Z,12.80
2017-11-23T13:47:22.896Z,12.80
2017-11-23T13:49:49.233Z,12.80
2017-11-23T13:52:15.542Z,12.80
2017-11-23T13:54:41.867Z,12.80
2017-11-23T13:57:08.196Z,12.90
2017-11-23T13:59:34.591Z,12.90
2017-11-23T14:02:00.933Z,12.90
2017-11-23T14:04:28.004Z,12.90
2017-11-23T14:06:54.356Z,12.90
2017-11-23T14:09:20.685Z,13.00
2017-11-23T14:11:47.040Z,13.00
2017-11-23T14:14:13.366Z,13.00
2017-11-23T14:16:39.663Z,13.00
2017-11-23T14:19:05.980Z,13.10
2017-11-23T14:21:32.330Z,13.10
2017-11-23T14:23:58.655Z,13.10
2017-11-23T14:26:25.288Z,13.10
2017-11-23T14:28:51.600Z,13.10
2017-11-23T14:31:18.655Z,13.10
2017-11-23T14:33:45.714Z,13.20
2017-11-23T14:36:12.038Z,13.10
2017-11-23T14:38:38.463Z,13.20
2017-11-23T14:41:05.529Z,13.20
2017-11-23T14:43:31.911Z,13.20
2017-11-23T14:45:58.281Z,13.30
2017-11-23T14:48:25.355Z,13.30
2017-11-23T14:50:51.717Z,13.20
2017-11-23T14:53:18.006Z,13.20
2017-11-23T14:55:44.338Z,13.10
2017-11-23T14:58:10.666Z,13.10
2017-11-23T15:00:37.132Z,13.10
2017-11-23T15:03:03.506Z,13.10
2017-11-23T15:05:30.566Z,13.10
2017-11-23T15:07:56.871Z,13.00
2017-11-23T15:10:23.948Z,12.90
2017-11-23T15:12:50.327Z,12.90
2017-11-23T15:15:16.654Z,12.90
2017-11-23T15:17:42.949Z,12.80
2017-11-23T15:20:09.284Z,12.80
2017-11-23T15:22:35.601Z,12.80
2017-11-23T15:25:01.910Z,12.80
2017-11-23T15:27:28.951Z,12.80
2017-11-23T15:29:55.241Z,12.70
2017-11-23T15:32:21.544Z,12.80
2017-11-23T15:34:47.850Z,12.80
2017-11-23T15:37:14.909Z,12.80
2017-11-23T15:39:41.943Z,12.70
2017-11-23T15:42:08.318Z,12.60
2017-11-23T15:44:34.618Z,12.60
2017-11-23T15:47:00.926Z,12.70
2017-11-23T15:49:27.236Z,12.60
2017-11-23T15:51:53.550Z,12.50
2017-11-23T15:54:19.844Z,12.40
2017-11-23T15:56:46.147Z,12.40
2017-11-23T15:59:13.194Z,12.40
2017-11-23T16:01:39.508Z,12.30
2017-11-23T16:04:05.834Z,12.40
2017-11-23T16:06:32.120Z,12.40
2017-11-23T16:08:58.462Z,12.40
2017-11-23T16:11:24.738Z,12.40
2017-11-23T16:13:51.034Z,12.40
2017-11-23T16:16:17.321Z,12.40
2017-11-23T16:18:43.620Z,12.30
2017-11-23T16:21:09.907Z,12.40
2017-11-23T16:23:36.224Z,12.40
2017-11-23T16:26:02.515Z,12.30
2017-11-23T16:28:29.594Z,12.50
2017-11-23T16:30:55.962Z,12.40
2017-11-23T16:33:22.267Z,12.50
2017-11-23T16:35:48.606Z,12.40
2017-11-23T16:38:17.800Z,12.50
2017-11-23T16:40:44.126Z,12.40
2017-11-23T16:43:15.497Z,12.50
2017-11-23T16:45:48.095Z,12.40
2017-11-23T16:48:21.405Z,12.50
2017-11-23T16:50:54.944Z,12.40
2017-11-23T16:53:27.318Z,12.40
2017-11-23T16:55:55.602Z,12.40
2017-11-23T16:58:28.475Z,12.40
2017-11-23T17:01:00.884Z,12.30
2017-11-23T17:03:31.279Z,12.40
2017-11-23T17:06:03.788Z,12.30
2017-11-23T17:08:30.996Z,12.30
2017-11-23T17:11:02.359Z,12.40
2017-11-23T17:13:34.687Z,12.40
2017-11-23T17:16:07.246Z,12.50
2017-11-23T17:18:53.177Z,12.60
2017-11-23T17:21:19.476Z,12.50
2017-11-23T17:23:45.807Z,12.50
2017-11-23T17:26:12.905Z,12.60
2017-11-23T17:28:39.210Z,12.60
2017-11-23T17:31:05.546Z,12.60
2017-11-23T17:33:31.904Z,12.60
2017-11-23T17:35:58.226Z,12.60
2017-11-23T17:38:24.603Z,12.70
2017-11-23T17:40:51.656Z,12.70
2017-11-23T17:43:18.837Z,12.70
2017-11-23T17:45:45.169Z,12.70
2017-11-23T17:48:11.602Z,12.80
2017-11-23T17:50:37.913Z,12.90
2017-11-23T17:53:04.277Z,12.90
2017-11-23T17:55:30.694Z,12.90
2017-11-23T17:57:57.001Z,12.90
2017-11-23T18:00:24.016Z,13.10
2017-11-23T18:02:50.373Z,13.00
2017-11-23T18:05:16.761Z,13.00
2017-11-23T18:07:43.084Z,13.00
2017-11-23T18:10:09.460Z,13.00
2017-11-23T18:12:35.844Z,13.10
2017-11-23T18:15:02.156Z,13.00
2017-11-23T18:17:28.463Z,13.00
2017-11-23T18:19:54.806Z,13.00
2017-11-23T18:22:21.107Z,13.00
2017-11-23T18:24:47.460Z,13.00
2017-11-23T18:27:13.787Z,13.00
2017-11-23T18:29:40.121Z,13.10
2017-11-23T18:32:06.420Z,13.20
2017-11-23T18:34:33.488Z,13.20
2017-11-23T18:37:00.509Z,13.20
2017-11-23T18:39:26.856Z,13.20
2017-11-23T18:41:53.972Z,13.20
2017-11-23T18:44:20.262Z,13.10
2017-11-23T18:46:46.553Z,13.20
2017-11-23T18:49:12.847Z,13.10
2017-11-23T18:51:39.166Z,13.20
2017-11-23T18:54:05.501Z,13.10
2017-11-23T18:56:31.799Z,13.20
2017-11-23T18:58:58.128Z,13.20
2017-11-23T19:01:25.210Z,13.10
2017-11-23T19:03:51.492Z,13.00
2017-11-23T19:06:18.575Z,13.10
2017-11-23T19:08:44.905Z,13.10
2017-11-23T19:11:11.951Z,12.80
2017-11-23T19:13:38.253Z,12.70
2017-11-23T19:16:05.366Z,12.60
2017-11-23T19:18:31.715Z,12.60
2017-11-23T19:20:58.810Z,12.40
2017-11-23T19:23:25.160Z,12.40
2017-11-23T19:25:51.500Z,12.30
2017-11-23T19:28:17.808Z,12.30
2017-11-23T19:30:44.156Z,12.20
2017-11-23T19:33:10.542Z,12.10
2017-11-23T19:35:36.890Z,12.10
2017-11-23T19:38:03.245Z,12.00
2017-11-23T19:40:29.612Z,12.10
2017-11-23T19:42:56.666Z,11.70
2017-11-23T19:45:23.756Z,11.70
2017-11-23T19:47:50.123Z,11.60
2017-11-23T19:50:16.476Z,11.60
2017-11-23T19:52:43.535Z,11.30
2017-11-23T19:55:09.889Z,11.30
2017-11-23T19:57:36.212Z,11.30
2017-11-23T20:00:02.597Z,11.20
2017-11-23T20:02:29.715Z,11.10
2017-11-23T20:04:56.090Z,11.10
2017-11-23T20:07:22.411Z,11.10
2017-11-23T20:09:49.853Z,11.00
2017-11-23T20:12:23.270Z,10.90
2017-11-23T20:14:49.629Z,11.00
2017-11-23T20:17:15.993Z,10.90
2017-11-23T20:19:42.407Z,10.80
2017-11-23T20:22:08.983Z,10.80
2017-11-23T20:24:36.144Z,10.60
2017-11-23T20:27:02.546Z,10.50
2017-11-23T20:29:29.029Z,10.60
2017-11-23T20:31:55.351Z,10.50
2017-11-23T20:34:21.837Z,10.40
2017-11-23T20:36:48.267Z,10.40
2017-11-23T20:39:14.629Z,10.40
2017-11-23T20:41:41.229Z,10.30
2017-11-23T20:44:08.006Z,10.30
2017-11-23T20:46:35.155Z,10.20
2017-11-23T20:49:01.525Z,10.10
2017-11-23T20:51:28.088Z,10.20
2017-11-23T20:53:54.537Z,10.10
2017-11-23T20:56:20.917Z,10.00
2017-11-23T20:58:47.969Z,10.00
2017-11-23T21:01:15.360Z,9.90
2017-11-23T21:03:41.613Z,9.90
2017-11-23T21:06:08.764Z,9.90
2017-11-23T21:08:35.877Z,9.90
2017-11-23T21:11:02.353Z,9.80
2017-11-23T21:13:28.650Z,10.00
2017-11-23T21:15:55.007Z,9.90
2017-11-23T21:18:22.610Z,9.80
2017-11-23T21:20:49.794Z,9.70
2017-11-23T21:23:16.105Z,9.70
2017-11-23T21:25:42.607Z,9.70
2017-11-23T21:28:09.019Z,9.60
2017-11-23T21:30:35.448Z,9.60
2017-11-23T21:33:01.785Z,9.60
2017-11-23T21:35:28.159Z,9.50
2017-11-23T21:37:54.564Z,9.50
2017-11-23T21:40:21.043Z,9.60
2017-11-23T21:42:47.421Z,9.60
2017-11-23T21:45:15.252Z,9.40
2017-11-23T21:47:41.610Z,9.40
2017-11-23T21:50:08.035Z,9.50
2017-11-23T21:52:34.458Z,9.50
2017-11-23T21:55:00.980Z,9.30
2017-11-23T21:57:27.319Z,9.30
2017-11-23T21:59:53.689Z,9.20
2017-11-23T22:02:20.063Z,9.20
2017-11-23T22:04:46.417Z,9.30
2017-11-23T22:07:12.779Z,9.20
2017-11-23T22:09:39.109Z,9.20
2017-11-23T22:12:05.398Z,9.20
2017-11-23T22:14:31.774Z,9.10
2017-11-23T22:16:59.104Z,8.90
2017-11-23T22:19:25.487Z,8.90
2017-11-23T22:21:51.847Z,9.00
2017-11-23T22:24:18.201Z,8.90
2017-11-23T22:26:44.693Z,8.80
2017-11-23T22:29:11.012Z,8.90
2017-11-23T22:31:38.164Z,8.70
2017-11-23T22:34:04.487Z,8.70
2017-11-23T22:36:30.817Z,8.70
2017-11-23T22:38:57.884Z,8.70
2017-11-23T22:41:24.196Z,8.70
2017-11-23T22:43:51.243Z,8.80
2017-11-23T22:46:18.296Z,8.80
2017-11-23T22:48:44.661Z,8.80
2017-11-23T22:51:11.029Z,8.80
2017-11-23T22:53:37.319Z,8.70
2017-11-23T22:56:03.653Z,8.60
2017-11-23T22:58:29.973Z,8.70
2017-11-23T23:00:56.342Z,8.70
2017-11-23T23:03:22.671Z,8.70
2017-11-23T23:05:49.812Z,8.70
2017-11-23T23:08:16.125Z,8.60
2017-11-23T23:10:42.466Z,8.80
2017-11-23T23:13:08.744Z,8.80
2017-11-23T23:15:35.820Z,8.60
2017-11-23T23:18:02.109Z,8.50
2017-11-23T23:20:29.156Z,8.50
2017-11-23T23:22:56.179Z,8.50
2017-11-23T23:25:23.248Z,8.50
2017-11-23T23:27:50.336Z,8.50
2017-11-23T23:30:16.680Z,8.50
2017-11-23T23:32:42.991Z,8.40
2017-11-23T23:35:09.298Z,8.50
2017-11-23T23:37:35.614Z,8.50
2017-11-23T23:40:02.721Z,8.50
2017-11-23T23:42:29.023Z,8.40
2017-11-23T23:44:55.305Z,8.50
2017-11-23T23:47:21.604Z,8.40
2017-11-23T23:49:47.898Z,8.40
2017-11-23T23:52:14.186Z,8.30
2017-11-23T23:54:41.252Z,8.20
2017-11-23T23:57:08.305Z,8.20
2017-11-23T23:59:35.372Z,8.30
